Time;durP1;ratioP1;P1;durP2;ratioP2;P2;SDS_P1;SDS_P2;PMS_P1;PMS_P2;Temp;Humidity;BMP_temperature;BMP_pressure;BME280_temperature;BME280_humidity;BME280_pressure;Samples;Min_cycle;Max_cycle;Signal;HPM_P1;HPM_P2
2023/06/29 00:01:31;;;;;;;5.20;1.70;;;;;;;17.60;56.25;99490.92;108340;1254;72646;-83
2023/06/29 00:04:01;;;;;;;2.10;1.30;;;;;;;17.61;56.33;99487.31;108178;1254;72609;-84
2023/06/29 00:06:36;;;;;;;3.20;1.60;;;;;;;17.63;56.35;99490.77;108113;1256;71406;-83
2023/06/29 00:09:04;;;;;;;3.10;1.50;;;;;;;17.57;56.49;99488.43;108000;1260;60459;-82
2023/06/29 00:11:33;;;;;;;2.80;1.70;;;;;;;17.56;56.60;99487.52;108287;1254;60110;-83
2023/06/29 00:14:00;;;;;;;3.50;1.60;;;;;;;17.59;56.68;99483.86;103849;1254;5558700;-83
2023/06/29 00:16:30;;;;;;;4.00;1.40;;;;;;;17.64;56.71;99482.17;108136;1254;60463;-85
2023/06/29 00:19:00;;;;;;;4.60;1.60;;;;;;;17.71;56.68;99480.02;108444;1260;71466;-84
2023/06/29 00:21:31;;;;;;;2.90;1.40;;;;;;;17.75;56.63;99475.41;108547;1254;60306;-84
2023/06/29 00:23:59;;;;;;;2.90;1.30;;;;;;;17.78;56.42;99471.83;108657;1253;60328;-82
2023/06/29 00:26:28;;;;;;;2.30;1.50;;;;;;;17.78;56.34;99471.67;108232;1259;73892;-83
2023/06/29 00:28:58;;;;;;;2.60;1.30;;;;;;;17.78;56.35;99468.73;108216;1261;71482;-84
2023/06/29 00:31:26;;;;;;;2.20;1.30;;;;;;;17.78;56.42;99467.13;108078;1254;72679;-85
2023/06/29 00:33:54;;;;;;;3.80;1.40;;;;;;;17.76;56.44;99471.03;108101;1254;60459;-82
2023/06/29 00:36:21;;;;;;;4.00;1.60;;;;;;;17.73;56.47;99462.88;108151;1254;60173;-83
2023/06/29 00:38:49;;;;;;;3.60;1.70;;;;;;;17.71;56.62;99464.61;108003;1254;73910;-85
2023/06/29 00:41:17;;;;;;;4.00;1.50;;;;;;;17.65;56.58;99456.15;108102;1254;71965;-84
2023/06/29 00:43:46;;;;;;;4.70;1.40;;;;;;;17.63;56.78;99457.92;108088;1254;71712;-84
2023/06/29 00:46:17;;;;;;;3.80;1.30;;;;;;;17.58;56.86;99456.90;108032;1254;62135;-82
2023/06/29 00:48:45;;;;;;;3.60;1.30;;;;;;;17.55;57.05;99454.21;108192;1259;60472;-85
2023/06/29 00:51:16;;;;;;;3.70;1.50;;;;;;;17.52;57.09;99450.88;107979;1254;73098;-83
2023/06/29 00:53:45;;;;;;;2.60;1.50;;;;;;;17.52;57.25;99451.88;108083;1253;72030;-83
2023/06/29 00:56:13;;;;;;;4.20;1.30;;;;;;;17.51;57.42;99448.92;108176;1254;72683;-84
2023/06/29 00:58:43;;;;;;;2.40;1.30;;;;;;;17.52;57.56;99445.55;108125;1257;60304;-83
2023/06/29 01:01:27;;;;;;;3.50;1.60;;;;;;;17.51;57.65;99449.56;108209;1254;61262;-83
2023/06/29 01:04:32;;;;;;;4.90;1.50;;;;;;;17.55;57.62;99448.92;108094;1254;73762;-84
2023/06/29 01:07:38;;;;;;;2.20;1.10;;;;;;;17.60;57.62;99451.72;108166;1253;72007;-84
2023/06/29 01:10:37;;;;;;;4.40;1.50;;;;;;;17.59;57.75;99447.84;107962;1254;72708;-83
2023/06/29 01:13:39;;;;;;;2.10;1.20;;;;;;;17.57;58.06;99446.99;108001;1254;60424;-82
2023/06/29 01:29:25;;;;;;;1.70;1.20;;;;;;;17.37;60.96;99438.74;108576;1257;71132;-84
2023/06/29 01:32:03;;;;;;;2.50;1.20;;;;;;;17.37;61.04;99436.08;108452;1254;60543;-81
2023/06/29 01:34:53;;;;;;;3.50;1.40;;;;;;;17.36;61.24;99434.63;108760;1253;59180;-83
2023/06/29 01:37:41;;;;;;;3.20;1.40;;;;;;;17.36;61.66;99440.43;108877;1257;73851;-85
2023/06/29 01:40:15;;;;;;;3.70;1.60;;;;;;;17.27;62.57;99440.69;108827;1257;71556;-83
2023/06/29 01:42:57;;;;;;;2.00;1.40;;;;;;;17.18;63.33;99435.10;107864;1255;70994;-83
2023/06/29 01:45:25;;;;;;;2.70;1.50;;;;;;;17.12;63.95;99437.08;108134;1254;60963;-82
2023/06/29 01:47:54;;;;;;;2.50;1.50;;;;;;;17.02;64.76;99441.14;108051;1254;59402;-85
2023/06/29 01:50:21;;;;;;;3.00;1.50;;;;;;;16.94;65.35;99439.22;107985;1254;73086;-84
2023/06/29 01:52:49;;;;;;;3.20;1.60;;;;;;;16.87;65.80;99438.25;107737;1254;73312;-84
2023/06/29 01:55:17;;;;;;;3.90;1.50;;;;;;;16.82;66.28;99438.09;107978;1254;71448;-85
2023/06/29 01:57:44;;;;;;;4.50;1.40;;;;;;;16.77;67.13;99437.48;107904;1254;60710;-84
2023/06/29 02:00:13;;;;;;;3.10;1.60;;;;;;;16.68;67.80;99435.02;107940;1257;60316;-84
2023/06/29 02:02:41;;;;;;;2.70;1.60;;;;;;;16.64;68.35;99433.32;108015;1254;72612;-84
2023/06/29 02:05:09;;;;;;;3.30;1.70;;;;;;;16.62;68.97;99430.48;108019;1254;72735;-83
2023/06/29 02:07:39;;;;;;;2.50;1.60;;;;;;;16.60;69.58;99433.54;108008;1257;72802;-82
2023/06/29 02:10:07;;;;;;;4.00;1.80;;;;;;;16.58;70.04;99429.77;108093;1259;60391;-84
2023/06/29 02:12:39;;;;;;;3.90;1.70;;;;;;;16.52;70.42;99430.36;108008;1254;60301;-84
2023/06/29 02:15:08;;;;;;;3.40;1.60;;;;;;;16.42;71.28;99428.44;107932;1254;72744;-83
2023/06/29 02:17:37;;;;;;;2.50;1.50;;;;;;;16.36;71.83;99429.41;107933;1254;72970;-83
2023/06/29 02:20:09;;;;;;;3.60;1.60;;;;;;;16.32;72.33;99430.80;107747;1257;71397;-83
2023/06/29 02:22:38;;;;;;;2.20;1.70;;;;;;;16.28;73.00;99433.02;108047;1254;61951;-82
2023/06/29 02:25:09;;;;;;;3.00;1.80;;;;;;;16.23;73.60;99428.95;107948;1255;60051;-83
2023/06/29 02:27:38;;;;;;;2.50;1.70;;;;;;;16.20;74.00;99426.75;107854;1254;76116;-82
2023/06/29 02:30:06;;;;;;;2.30;1.60;;;;;;;16.19;74.29;99424.66;107896;1257;71446;-83
2023/06/29 02:32:34;;;;;;;2.70;1.60;;;;;;;16.17;74.67;99418.73;108023;1257;71381;-83
2023/06/29 02:35:03;;;;;;;2.90;1.70;;;;;;;16.16;75.16;99418.83;108018;1254;60422;-84
2023/06/29 02:37:31;;;;;;;3.50;1.90;;;;;;;16.16;75.35;99418.52;108075;1257;60104;-82
2023/06/29 02:39:59;;;;;;;3.10;1.60;;;;;;;16.18;75.55;99418.06;107859;1254;72636;-83
2023/06/29 02:42:27;;;;;;;3.80;2.00;;;;;;;16.22;75.78;99417.35;108038;1255;71196;-83
2023/06/29 02:44:55;;;;;;;2.30;1.60;;;;;;;16.26;75.93;99415.61;107873;1256;71422;-84
2023/06/29 02:47:22;;;;;;;3.60;1.80;;;;;;;16.27;76.02;99412.71;107985;1257;61734;-84
2023/06/29 02:49:50;;;;;;;2.70;1.50;;;;;;;16.25;76.18;99409.80;107857;1256;60466;-83
2023/06/29 02:52:21;;;;;;;4.30;1.60;;;;;;;16.24;76.41;99415.29;108012;1254;74042;-82
2023/06/29 02:54:49;;;;;;;4.00;1.80;;;;;;;16.27;76.52;99413.57;107861;1254;71407;-83
2023/06/29 02:57:18;;;;;;;2.90;1.60;;;;;;;16.30;76.54;99410.70;107933;1257;71872;-84
2023/06/29 02:59:46;;;;;;;3.60;1.50;;;;;;;16.32;76.64;99410.02;107976;1257;61184;-83
2023/06/29 03:02:15;;;;;;;3.20;1.80;;;;;;;16.31;76.74;99409.88;108015;1257;60357;-82
2023/06/29 03:04:44;;;;;;;3.20;1.60;;;;;;;16.31;76.86;99407.65;107960;1254;72966;-82
2023/06/29 03:07:12;;;;;;;2.90;1.40;;;;;;;16.31;77.12;99414.19;108046;1257;72458;-82
2023/06/29 03:09:49;;;;;;;3.90;1.70;;;;;;;16.33;77.37;99408.91;107958;1260;72333;-81
2023/06/29 03:12:31;;;;;;;2.90;1.60;;;;;;;16.34;77.39;99405.42;107923;1257;61969;-81
2023/06/29 03:15:11;;;;;;;2.90;1.60;;;;;;;16.30;77.57;99408.86;107882;1254;60338;-82
2023/06/29 03:17:55;;;;;;;2.50;1.50;;;;;;;16.24;77.89;99404.77;107890;1254;74861;-82
2023/06/29 03:20:35;;;;;;;3.00;1.60;;;;;;;16.24;78.23;99407.67;107913;1254;72725;-83
2023/06/29 03:23:24;;;;;;;2.90;1.40;;;;;;;16.26;78.43;99404.60;107893;1257;71092;-83
2023/06/29 03:26:01;;;;;;;3.20;1.40;;;;;;;16.32;78.46;99404.32;107837;1253;61717;-83
2023/06/29 03:28:48;;;;;;;3.90;1.40;;;;;;;16.37;78.51;99409.05;108002;1259;59178;-83
2023/06/29 03:31:22;;;;;;;3.60;1.60;;;;;;;16.40;78.61;99406.95;107856;1254;73858;-84
2023/06/29 03:34:08;;;;;;;4.60;1.50;;;;;;;16.40;78.61;99407.58;107843;1254;72528;-83
2023/06/29 03:36:49;;;;;;;2.90;1.70;;;;;;;16.40;78.61;99407.80;107933;1258;71843;-84
2023/06/29 03:39:37;;;;;;;2.20;1.50;;;;;;;16.39;78.77;99403.70;107844;1257;61674;-83
2023/06/29 03:42:15;;;;;;;2.70;1.70;;;;;;;16.42;78.89;99404.89;107796;1254;60432;-83
2023/06/29 03:45:00;;;;;;;2.60;1.60;;;;;;;16.44;79.02;99405.00;107987;1254;73830;-83
2023/06/29 03:48:03;;;;;;;2.40;1.50;;;;;;;16.46;79.04;99405.25;107846;1254;71586;-82
2023/06/29 03:50:31;;;;;;;2.10;1.40;;;;;;;16.50;79.15;99406.59;107932;1257;71400;-83
2023/06/29 03:52:58;;;;;;;3.70;1.80;;;;;;;16.55;79.08;99410.34;108030;1254;60778;-81
2023/06/29 03:55:26;;;;;;;2.90;1.70;;;;;;;16.57;79.04;99409.56;107954;1254;60337;-83
2023/06/29 03:57:57;;;;;;;3.60;1.70;;;;;;;16.58;78.98;99411.91;107941;1254;73890;-83
2023/06/29 04:00:25;;;;;;;3.10;1.90;;;;;;;16.60;78.87;99411.14;107940;1259;71528;-85
2023/06/29 04:02:52;;;;;;;2.50;1.70;;;;;;;16.62;78.90;99408.84;107975;1254;72144;-84
2023/06/29 04:05:20;;;;;;;2.80;1.80;;;;;;;16.63;78.99;99405.10;107931;1257;61874;-84
2023/06/29 04:07:48;;;;;;;3.60;2.00;;;;;;;16.60;79.00;99401.74;107888;1257;59056;-85
2023/06/29 04:10:15;;;;;;;2.90;1.90;;;;;;;16.60;79.12;99401.98;108021;1257;72526;-85
2023/06/29 04:12:43;;;;;;;3.10;2.00;;;;;;;16.63;79.22;99401.53;107883;1257;71449;-85
2023/06/29 04:15:10;;;;;;;3.50;2.00;;;;;;;16.68;79.24;99399.17;108001;1260;72688;-85
2023/06/29 04:17:38;;;;;;;4.10;2.10;;;;;;;16.70;79.15;99398.44;108020;1257;60934;-84
2023/06/29 04:20:09;;;;;;;3.30;2.40;;;;;;;16.74;79.17;99401.05;108030;1254;60232;-85
2023/06/29 04:22:37;;;;;;;3.50;2.30;;;;;;;16.77;79.18;99402.90;108051;1254;73929;-85
2023/06/29 04:25:05;;;;;;;3.80;2.20;;;;;;;16.85;79.19;99403.05;108057;1254;73001;-84
2023/06/29 04:27:34;;;;;;;4.50;2.80;;;;;;;16.91;79.08;99403.36;107945;1257;72654;-86
2023/06/29 04:30:03;;;;;;;3.40;2.40;;;;;;;16.92;78.81;99409.96;107933;1254;61640;-85
2023/06/29 04:32:32;;;;;;;5.60;2.70;;;;;;;16.95;78.80;99414.05;108033;1254;60323;-85
2023/06/29 04:35:01;;;;;;;4.00;2.50;;;;;;;17.03;78.87;99408.20;107937;1256;73741;-85
2023/06/29 04:37:40;;;;;;;4.30;2.60;;;;;;;17.07;78.75;99407.34;108007;1254;71485;-85
2023/06/29 04:40:14;;;;;;;3.80;2.50;;;;;;;17.13;78.72;99407.11;108152;1257;71375;-86
2023/06/29 04:42:46;;;;;;;4.50;2.60;;;;;;;17.16;78.60;99407.73;108039;1256;61088;-86
2023/06/29 04:45:19;;;;;;;3.10;2.50;;;;;;;17.15;78.35;99406.65;108031;1254;59458;-85
2023/06/29 04:47:49;;;;;;;3.70;2.40;;;;;;;17.17;78.48;99402.80;108019;1256;72752;-85
2023/06/29 04:50:24;;;;;;;4.20;2.80;;;;;;;17.23;78.45;99402.77;107980;1254;71573;-86
2023/06/29 04:52:53;;;;;;;4.00;2.80;;;;;;;17.26;78.31;99406.52;108076;1259;72661;-85
2023/06/29 04:55:22;;;;;;;4.20;2.90;;;;;;;17.25;78.08;99402.93;108021;1256;60459;-86
2023/06/29 04:57:49;;;;;;;4.00;2.50;;;;;;;17.25;78.08;99403.95;108062;1254;60048;-85
2023/06/29 05:00:18;;;;;;;5.70;2.90;;;;;;;17.25;78.14;99404.86;107846;1254;72660;-85
2023/06/29 05:02:45;;;;;;;4.30;2.80;;;;;;;17.26;78.13;99402.58;108090;1259;71448;-85
2023/06/29 05:05:13;;;;;;;4.60;3.20;;;;;;;17.25;78.11;99402.93;108144;1254;71374;-85
2023/06/29 05:07:42;;;;;;;3.50;2.60;;;;;;;17.25;78.14;99403.40;108196;1254;60920;-85
2023/06/29 05:10:10;;;;;;;3.90;3.20;;;;;;;17.28;78.20;99407.27;108053;1254;61390;-85
2023/06/29 05:12:38;;;;;;;4.30;2.90;;;;;;;17.31;78.31;99406.63;108095;1257;72660;-85
2023/06/29 05:15:06;;;;;;;5.10;3.00;;;;;;;17.34;78.38;99406.02;107810;1255;72703;-85
2023/06/29 05:17:33;;;;;;;4.50;3.00;;;;;;;17.34;78.32;99406.44;108051;1260;72698;-85
2023/06/29 05:20:03;;;;;;;4.50;3.10;;;;;;;17.39;78.36;99408.22;108023;1260;60379;-85
2023/06/29 05:22:33;;;;;;;5.40;3.30;;;;;;;17.45;78.39;99400.03;108117;1254;62035;-86
2023/06/29 05:25:00;;;;;;;4.50;3.20;;;;;;;17.56;78.33;99396.98;108044;1254;73905;-86
2023/06/29 05:27:28;;;;;;;6.20;3.30;;;;;;;17.61;77.96;99394.67;107800;1260;72491;-84
2023/06/29 05:29:57;;;;;;;5.20;3.00;;;;;;;17.66;77.63;99394.29;108122;1257;71815;-85
2023/06/29 05:32:24;;;;;;;3.70;2.80;;;;;;;17.73;77.66;99396.10;108020;1253;61775;-85
2023/06/29 05:34:52;;;;;;;3.60;3.00;;;;;;;17.82;77.42;99398.27;108043;1254;60297;-86
2023/06/29 05:37:20;;;;;;;4.40;3.10;;;;;;;17.85;77.26;99390.82;108081;1256;72787;-86
2023/06/29 05:39:49;;;;;;;5.20;3.20;;;;;;;17.92;77.03;99395.36;108066;1255;72731;-86
2023/06/29 05:42:17;;;;;;;4.60;3.30;;;;;;;17.99;76.87;99398.95;108185;1255;72437;-86
2023/06/29 05:44:45;;;;;;;5.90;3.50;;;;;;;18.03;76.38;99406.08;107968;1254;61890;-85
2023/06/29 05:47:16;;;;;;;6.50;3.70;;;;;;;17.99;76.10;99406.88;107985;1254;60341;-85
2023/06/29 05:49:44;;;;;;;4.00;3.30;;;;;;;18.00;76.22;99407.00;107980;1254;72597;-84
2023/06/29 05:52:12;;;;;;;5.60;3.70;;;;;;;18.05;76.36;99410.25;107915;1254;72240;-86
2023/06/29 05:54:41;;;;;;;5.00;3.50;;;;;;;18.07;76.04;99405.83;107876;1254;73145;-86
2023/06/29 05:57:22;;;;;;;4.60;3.60;;;;;;;18.13;76.02;99407.78;107954;1255;62811;-85
2023/06/29 05:59:53;;;;;;;4.50;3.60;;;;;;;18.20;75.50;99409.14;108086;1259;60982;-86
2023/06/29 06:02:21;;;;;;;5.00;3.80;;;;;;;18.27;75.32;99407.88;107999;1258;75047;-85
2023/06/29 06:04:49;;;;;;;5.80;3.60;;;;;;;18.35;75.05;99408.66;108071;1259;73314;-86
2023/06/29 06:07:31;;;;;;;5.30;3.80;;;;;;;18.42;74.72;99402.89;107983;1259;71213;-86
2023/06/29 06:25:14;;;;;;;5.30;3.80;;;;;;;18.91;73.40;99405.75;105704;1282;612870;-84
2023/06/29 06:27:42;;;;;;;4.20;3.00;;;;;;;19.41;71.07;99406.98;103535;1264;5228991;-84
2023/06/29 06:30:09;;;;;;;6.00;3.90;;;;;;;19.43;70.73;99409.77;107413;1265;59505;-85
2023/06/29 06:32:38;;;;;;;5.10;3.60;;;;;;;19.41;70.61;99407.54;107479;1266;59355;-84
2023/06/29 06:35:09;;;;;;;4.30;3.70;;;;;;;19.36;70.25;99408.38;107452;1265;74857;-85
2023/06/29 06:37:36;;;;;;;5.70;4.00;;;;;;;19.29;70.39;99411.82;107421;1265;72916;-85
2023/06/29 06:40:07;;;;;;;5.70;3.60;;;;;;;19.23;70.55;99410.71;107397;1266;60846;-84
2023/06/29 06:42:34;;;;;;;5.00;3.70;;;;;;;19.21;70.66;99408.94;107418;1267;59545;-86
2023/06/29 06:45:03;;;;;;;4.30;3.60;;;;;;;19.21;70.90;99411.35;107451;1266;72367;-84
2023/06/29 06:47:34;;;;;;;5.10;3.60;;;;;;;19.20;70.73;99408.24;107474;1264;71686;-85
2023/06/29 06:50:02;;;;;;;4.60;4.10;;;;;;;19.13;70.47;99414.13;107430;1265;72736;-85
2023/06/29 06:52:29;;;;;;;4.40;4.00;;;;;;;19.05;70.73;99413.98;107410;1264;60783;-85
2023/06/29 06:54:56;;;;;;;5.50;4.20;;;;;;;19.01;70.84;99410.91;107478;1266;60378;-85
2023/06/29 06:57:22;;;;;;;5.40;4.20;;;;;;;19.03;71.53;99416.45;107401;1266;73125;-84
2023/06/29 06:59:49;;;;;;;5.60;4.20;;;;;;;19.05;72.36;99413.27;107432;1267;71892;-83
2023/06/29 07:02:16;;;;;;;5.30;4.40;;;;;;;19.06;72.78;99413.70;107969;1256;60822;-84
2023/06/29 07:04:43;;;;;;;6.00;4.10;;;;;;;19.06;73.14;99413.16;107982;1258;60878;-82
2023/06/29 07:07:10;;;;;;;6.20;3.90;;;;;;;19.08;73.52;99415.61;108023;1258;59586;-82
2023/06/29 07:09:37;;;;;;;5.20;3.90;;;;;;;19.16;73.82;99408.96;107935;1256;74794;-83
2023/06/29 07:12:04;;;;;;;4.30;3.80;;;;;;;19.27;74.09;99409.52;107902;1256;72749;-84
2023/06/29 07:14:31;;;;;;;4.10;3.50;;;;;;;19.39;73.92;99401.89;107828;1259;72687;-84
2023/06/29 07:16:58;;;;;;;4.30;3.30;;;;;;;19.48;73.17;99406.46;107791;1259;61920;-86
2023/06/29 07:19:25;;;;;;;4.80;3.60;;;;;;;19.49;72.85;99408.51;107869;1258;60570;-85
2023/06/29 07:21:55;;;;;;;3.80;3.30;;;;;;;19.50;73.15;99407.61;107904;1257;73094;-85
2023/06/29 07:24:24;;;;;;;4.60;3.70;;;;;;;19.54;73.10;99406.94;107832;1257;73759;-84
2023/06/29 07:26:51;;;;;;;5.30;3.70;;;;;;;19.57;72.95;99403.02;107851;1257;59707;-85
2023/06/29 07:29:17;;;;;;;5.10;3.90;;;;;;;19.60;72.52;99406.71;107920;1257;59444;-84
2023/06/29 07:31:44;;;;;;;5.10;3.70;;;;;;;19.61;72.68;99405.73;107875;1257;59503;-84
2023/06/29 07:34:11;;;;;;;5.70;3.90;;;;;;;19.60;72.70;99411.61;107866;1257;73079;-85
2023/06/29 07:36:39;;;;;;;4.70;3.90;;;;;;;19.57;72.57;99411.74;107854;1257;71634;-86
2023/06/29 07:39:05;;;;;;;4.90;3.90;;;;;;;19.52;72.62;99408.37;107800;1257;72754;-86
2023/06/29 07:41:32;;;;;;;6.30;4.00;;;;;;;19.48;72.56;99414.27;107897;1257;62740;-84
2023/06/29 07:43:59;;;;;;;6.20;4.10;;;;;;;19.51;72.21;99411.74;107857;1258;59539;-87
2023/06/29 07:46:26;;;;;;;5.60;4.10;;;;;;;19.64;72.22;99416.30;107857;1257;71842;-85
2023/06/29 07:48:54;;;;;;;4.50;3.80;;;;;;;19.74;71.47;99417.66;107845;1257;71868;-84
2023/06/29 07:51:21;;;;;;;5.40;3.90;;;;;;;19.81;70.96;99413.38;107850;1257;72787;-86
2023/06/29 07:53:48;;;;;;;4.50;3.60;;;;;;;19.90;70.78;99413.75;107867;1257;60796;-87
2023/06/29 07:56:14;;;;;;;4.50;3.80;;;;;;;19.97;70.60;99412.91;107858;1257;60542;-86
2023/06/29 07:58:41;;;;;;;5.40;4.30;;;;;;;19.94;70.22;99414.16;107822;1257;71839;-86
2023/06/29 08:01:11;;;;;;;4.70;3.70;;;;;;;19.89;70.06;99420.09;107902;1257;74943;-85
2023/06/29 08:03:46;;;;;;;4.40;3.90;;;;;;;19.89;69.59;99419.23;107823;1257;73090;-85
2023/06/29 08:06:44;;;;;;;5.20;3.70;;;;;;;19.97;69.76;99424.31;107872;1259;60950;-86
2023/06/29 08:09:34;;;;;;;4.40;3.70;;;;;;;20.14;69.50;99425.67;107811;1259;62900;-87
2023/06/29 09:11:56;;;;;;;3.90;3.30;;;;;;;21.18;65.58;99410.77;108777;1256;59271;-85
2023/06/29 09:14:59;;;;;;;4.70;3.30;;;;;;;21.58;65.60;99401.98;108657;1256;70850;-84
2023/06/29 09:18:08;;;;;;;4.10;3.50;;;;;;;22.08;64.75;99396.21;108553;1257;72909;-84
2023/06/29 09:21:10;;;;;;;5.00;3.70;;;;;;;22.31;62.60;99402.13;108506;1257;72628;-83
2023/06/29 09:24:29;;;;;;;4.80;3.40;;;;;;;22.26;61.52;99400.19;108526;1257;60484;-84
2023/06/29 09:31:35;;;;;;;4.00;2.90;;;;;;;22.24;60.08;99394.95;108129;1258;73156;-83
2023/06/29 09:34:33;;;;;;;4.00;3.30;;;;;;;22.41;59.79;99386.44;107903;1257;71525;-83
2023/06/29 09:37:44;;;;;;;4.90;2.90;;;;;;;22.35;59.03;99396.84;108397;1257;75472;-85
2023/06/29 09:41:03;;;;;;;3.50;2.80;;;;;;;21.84;59.82;99402.30;108465;1257;60191;-85
2023/06/29 09:44:12;;;;;;;5.90;3.10;;;;;;;21.29;63.02;99404.50;108253;1257;59501;-84
2023/06/29 09:47:11;;;;;;;5.20;3.30;;;;;;;20.96;65.19;99400.52;108377;1257;74076;-82
2023/06/29 09:50:31;;;;;;;4.80;3.40;;;;;;;20.84;66.57;99405.20;108270;1257;73650;-82
2023/06/29 09:53:35;;;;;;;4.60;3.50;;;;;;;21.11;67.87;99401.92;108085;1257;71187;-84
2023/06/29 09:56:41;;;;;;;4.50;3.70;;;;;;;21.47;68.29;99414.95;108468;1257;65477;-84
2023/06/29 09:59:53;;;;;;;4.60;3.50;;;;;;;21.67;64.91;99414.17;108398;1256;59580;-84
2023/06/29 10:02:59;;;;;;;5.10;3.80;;;;;;;21.65;63.57;99416.86;108233;1256;73383;-84
2023/06/29 10:06:17;;;;;;;6.20;4.20;;;;;;;21.57;63.07;99411.73;108634;1255;71676;-84
2023/06/29 10:09:29;;;;;;;5.60;3.90;;;;;;;21.54;63.16;99401.81;108409;1256;71840;-85
2023/06/29 10:12:01;;;;;;;4.10;3.30;;;;;;;21.48;63.67;99396.49;108468;1257;60772;-85
2023/06/29 10:14:33;;;;;;;4.70;3.40;;;;;;;21.60;62.47;99397.82;108330;1257;59070;-85
2023/06/29 10:17:00;;;;;;;4.70;3.40;;;;;;;21.78;62.29;99389.70;108534;1257;71805;-85
2023/06/29 10:19:28;;;;;;;4.50;3.50;;;;;;;21.98;60.86;99386.02;108319;1256;73423;-85
2023/06/29 10:22:13;;;;;;;3.70;3.10;;;;;;;22.12;59.23;99379.02;108524;1257;75939;-86
2023/06/29 10:24:48;;;;;;;5.00;3.70;;;;;;;22.24;58.59;99375.98;108479;1257;60728;-84
2023/06/29 10:27:26;;;;;;;4.60;3.30;;;;;;;22.38;58.14;99377.45;108283;1257;62878;-86
2023/06/29 10:30:15;;;;;;;4.50;3.30;;;;;;;22.52;57.29;99382.95;108430;1257;71996;-83
2023/06/29 10:32:55;;;;;;;4.10;3.00;;;;;;;22.74;56.48;99381.26;108737;1256;74004;-82
2023/06/29 10:35:29;;;;;;;3.70;2.80;;;;;;;22.67;55.93;99376.80;108536;1256;74094;-83
2023/06/29 10:37:59;;;;;;;4.10;3.10;;;;;;;22.73;54.50;99375.41;108463;1257;59935;-83
2023/06/29 10:40:47;;;;;;;3.10;2.30;;;;;;;22.83;53.84;99376.78;108233;1257;59386;-85
2023/06/29 10:43:18;;;;;;;4.00;2.60;;;;;;;23.03;53.44;99374.20;108346;1257;74444;-85
2023/06/29 10:45:46;;;;;;;4.10;2.60;;;;;;;23.19;52.33;99367.72;108346;1255;75305;-84
2023/06/29 10:48:17;;;;;;;3.60;2.30;;;;;;;23.26;52.32;99371.30;108587;1255;73007;-85
2023/06/29 10:51:04;;;;;;;4.00;2.90;;;;;;;23.30;52.08;99374.86;108041;1256;59778;-85
2023/06/29 10:53:30;;;;;;;4.20;3.20;;;;;;;23.29;52.24;99366.83;108186;1256;59710;-85
2023/06/29 10:55:59;;;;;;;3.70;2.80;;;;;;;23.19;52.36;99367.95;108078;1260;73224;-84
2023/06/29 10:58:28;;;;;;;4.50;2.50;;;;;;;22.99;52.62;99366.45;108134;1255;73175;-86
2023/06/29 11:00:55;;;;;;;3.80;2.80;;;;;;;22.75;52.92;99372.02;108194;1256;72777;-87
2023/06/29 11:03:25;;;;;;;4.30;2.80;;;;;;;22.58;53.71;99373.17;108032;1257;62191;-84
2023/06/29 11:05:57;;;;;;;3.60;3.00;;;;;;;22.50;54.39;99375.38;107997;1257;60081;-85
2023/06/29 11:08:24;;;;;;;4.60;2.50;;;;;;;22.47;54.93;99367.96;107929;1256;73226;-86
2023/06/29 11:10:52;;;;;;;3.80;2.30;;;;;;;22.58;54.20;99370.53;108046;1256;73113;-83
2023/06/29 11:13:20;;;;;;;2.80;2.30;;;;;;;22.75;53.01;99373.65;108196;1256;72531;-83
2023/06/29 11:15:56;;;;;;;4.20;2.40;;;;;;;22.97;53.10;99368.05;108580;1256;60434;-83
2023/06/29 11:18:50;;;;;;;3.30;2.30;;;;;;;23.24;52.79;99370.41;108281;1256;58676;-83
2023/06/29 11:21:21;;;;;;;3.00;2.30;;;;;;;23.45;51.87;99366.08;108210;1256;76572;-83
2023/06/29 11:23:51;;;;;;;3.80;2.60;;;;;;;23.60;51.59;99365.47;108226;1256;71628;-83
2023/06/29 11:26:30;;;;;;;5.70;2.40;;;;;;;23.78;51.44;99367.14;108236;1256;75109;-83
2023/06/29 11:28:59;;;;;;;3.50;2.50;;;;;;;23.96;51.44;99370.20;107926;1256;62159;-84
2023/06/29 11:31:26;;;;;;;3.50;2.70;;;;;;;24.10;50.63;99364.24;108023;1255;60930;-85
2023/06/29 11:33:53;;;;;;;3.40;2.50;;;;;;;24.16;49.77;99360.85;107930;1256;73828;-83
2023/06/29 11:36:31;;;;;;;3.30;2.30;;;;;;;24.13;50.06;99354.38;108015;1255;73866;-82
2023/06/29 11:39:09;;;;;;;4.80;2.90;;;;;;;24.10;50.53;99351.38;108040;1256;72773;-85
2023/06/29 11:41:39;;;;;;;3.90;2.60;;;;;;;24.10;50.59;99353.95;108003;1255;62501;-84
2023/06/29 11:44:06;;;;;;;3.20;2.40;;;;;;;24.05;50.28;99357.05;108023;1255;60321;-85
2023/06/29 11:46:38;;;;;;;4.60;2.50;;;;;;;23.99;50.25;99361.66;107952;1256;76922;-85
2023/06/29 11:49:05;;;;;;;4.70;2.80;;;;;;;23.92;50.49;99360.27;107682;1256;74873;-83
2023/06/29 11:51:34;;;;;;;5.50;2.70;;;;;;;23.78;50.96;99369.56;108025;1256;71237;-84
2023/06/29 11:54:02;;;;;;;5.00;2.50;;;;;;;23.46;51.35;99376.59;107948;1255;60325;-84
2023/06/29 11:56:38;;;;;;;3.20;2.40;;;;;;;22.93;51.95;99386.50;107968;1256;60544;-86
2023/06/29 11:59:07;;;;;;;3.20;2.40;;;;;;;22.37;53.20;99375.80;108014;1256;72030;-82
2023/06/29 12:01:35;;;;;;;4.70;2.80;;;;;;;21.92;54.50;99393.66;107961;1257;71574;-85
2023/06/29 12:04:06;;;;;;;3.90;2.60;;;;;;;21.63;55.42;99385.62;107910;1257;72805;-85
2023/06/29 12:06:33;;;;;;;3.50;2.60;;;;;;;21.54;56.81;99387.85;107935;1257;61097;-83
2023/06/29 12:09:00;;;;;;;4.00;2.60;;;;;;;21.59;57.40;99379.57;107963;1256;61258;-84
2023/06/29 12:11:28;;;;;;;5.70;3.10;;;;;;;21.71;57.06;99379.16;107983;1257;73900;-86
2023/06/29 12:13:55;;;;;;;5.40;2.80;;;;;;;21.87;56.84;99386.98;107946;1260;72815;-84
2023/06/29 12:16:23;;;;;;;5.50;3.10;;;;;;;22.01;56.64;99385.05;107930;1257;72491;-85
2023/06/29 12:18:53;;;;;;;6.40;3.70;;;;;;;22.08;57.33;99377.71;108022;1256;60557;-84
2023/06/29 12:21:20;;;;;;;4.50;3.10;;;;;;;22.17;58.15;99382.94;107997;1257;60168;-87
2023/06/29 12:23:49;;;;;;;4.80;3.10;;;;;;;22.31;58.91;99376.89;107969;1257;73730;-85
2023/06/29 12:26:16;;;;;;;4.50;2.90;;;;;;;22.54;58.72;99372.02;107955;1257;72849;-85
2023/06/29 12:28:43;;;;;;;4.70;3.00;;;;;;;22.83;57.59;99372.82;107960;1259;72365;-83
2023/06/29 12:31:10;;;;;;;5.40;3.70;;;;;;;23.13;56.73;99367.79;107972;1257;60417;-84
2023/06/29 12:33:38;;;;;;;5.00;3.00;;;;;;;23.50;55.94;99372.75;107962;1257;60366;-85
2023/06/29 12:36:05;;;;;;;4.10;2.60;;;;;;;23.83;53.58;99369.08;107998;1256;73893;-85
2023/06/29 12:38:32;;;;;;;4.00;3.00;;;;;;;24.02;52.52;99370.27;107929;1257;72555;-83
2023/06/29 12:41:01;;;;;;;5.20;3.00;;;;;;;24.03;51.97;99372.06;107941;1257;72418;-83
2023/06/29 12:43:28;;;;;;;4.50;3.10;;;;;;;23.87;51.81;99374.56;107913;1257;60477;-84
2023/06/29 12:45:55;;;;;;;4.20;2.90;;;;;;;23.74;52.58;99370.54;107975;1257;59414;-85
2023/06/29 12:48:24;;;;;;;5.40;2.90;;;;;;;23.70;53.37;99365.67;107968;1257;73902;-84
2023/06/29 12:50:58;;;;;;;6.00;3.00;;;;;;;23.66;52.61;99369.66;108005;1257;74047;-85
2023/06/29 12:53:26;;;;;;;4.10;2.90;;;;;;;23.67;52.15;99361.88;107955;1257;71513;-85
2023/06/29 12:55:53;;;;;;;5.60;2.90;;;;;;;23.71;52.07;99366.23;107943;1257;60384;-84
2023/06/29 12:58:21;;;;;;;5.10;3.00;;;;;;;23.75;52.51;99362.45;107970;1257;60566;-84
2023/06/29 13:00:48;;;;;;;5.70;3.10;;;;;;;23.75;52.82;99360.42;107966;1257;72515;-83
2023/06/29 13:03:15;;;;;;;4.50;3.00;;;;;;;23.75;53.19;99351.84;108008;1256;71551;-83
2023/06/29 13:05:42;;;;;;;4.80;3.00;;;;;;;23.86;52.27;99355.70;107994;1257;72613;-86
2023/06/29 13:08:13;;;;;;;4.40;2.70;;;;;;;24.01;51.48;99355.84;107949;1256;60349;-84
2023/06/29 13:10:41;;;;;;;3.70;2.50;;;;;;;24.11;50.86;99353.34;107964;1260;60493;-83
2023/06/29 13:13:08;;;;;;;4.90;2.90;;;;;;;24.11;50.34;99360.36;107840;1256;73940;-83
2023/06/29 13:15:35;;;;;;;4.40;3.30;;;;;;;24.03;50.46;99362.23;108004;1259;72630;-85
2023/06/29 13:18:02;;;;;;;4.90;2.80;;;;;;;24.06;50.59;99365.93;107947;1255;72862;-85
2023/06/29 13:20:29;;;;;;;4.10;3.00;;;;;;;24.12;50.58;99362.63;107964;1255;60378;-84
2023/06/29 13:22:57;;;;;;;4.90;2.90;;;;;;;24.17;51.27;99361.10;107984;1255;60344;-84
2023/06/29 13:25:24;;;;;;;4.60;3.10;;;;;;;24.19;51.45;99364.09;107972;1256;72284;-83